Time;durP1;ratioP1;P1;durP2;ratioP2;P2;SDS_P1;SDS_P2;PMS_P1;PMS_P2;Temp;Humidity;BMP_temperature;BMP_pressure;BME280_temperature;BME280_humidity;BME280_pressure;Samples;Min_cycle;Max_cycle;Signal;HPM_P1;HPM_P2
2024/01/06 00:00:02;;;;;;;35.70;18.20;;;3.10;99.90;;;;;;5061475;28;20519;-67
2024/01/06 00:02:29;;;;;;;36.50;18.73;;;3.00;99.90;;;;;;5061272;28;20460;-64
2024/01/06 00:04:56;;;;;;;34.10;18.87;;;3.00;99.90;;;;;;5061443;28;20511;-65
2024/01/06 00:07:23;;;;;;;36.47;18.57;;;3.10;99.90;;;;;;5061120;28;20537;-65
2024/01/06 00:09:49;;;;;;;44.00;19.20;;;3.00;99.90;;;;;;5061275;28;20473;-65
2024/01/06 00:12:18;;;;;;;30.47;16.97;;;3.00;99.90;;;;;;5061269;28;20480;-65
2024/01/06 00:14:45;;;;;;;37.50;20.27;;;3.00;99.90;;;;;;5061357;28;20831;-65
2024/01/06 00:17:13;;;;;;;31.43;15.80;;;3.10;99.90;;;;;;5061353;28;20525;-67
2024/01/06 00:19:40;;;;;;;29.90;16.60;;;3.10;99.90;;;;;;5061355;28;20548;-66
2024/01/06 00:22:07;;;;;;;33.87;17.03;;;3.10;99.90;;;;;;5061774;28;20838;-65
2024/01/06 00:24:34;;;;;;;39.13;18.10;;;3.10;99.90;;;;;;5061300;28;20442;-65
2024/01/06 00:27:01;;;;;;;32.43;16.87;;;3.10;99.90;;;;;;5061370;28;20506;-65
2024/01/06 00:29:28;;;;;;;36.60;18.20;;;3.10;99.90;;;;;;5061385;28;20471;-65
2024/01/06 00:31:54;;;;;;;38.20;18.37;;;3.10;99.90;;;;;;5060547;28;20448;-64
2024/01/06 00:34:23;;;;;;;42.83;21.30;;;3.20;99.90;;;;;;5057443;28;20477;-64
2024/01/06 00:36:50;;;;;;;42.80;18.40;;;3.10;99.90;;;;;;5058209;28;20504;-65
2024/01/06 00:39:16;;;;;;;30.13;15.50;;;3.10;99.90;;;;;;5058007;28;20573;-65
2024/01/06 00:41:43;;;;;;;34.57;18.30;;;3.00;99.90;;;;;;5058144;28;20440;-65
2024/01/06 00:44:10;;;;;;;45.37;18.77;;;3.00;99.90;;;;;;5058194;28;20529;-64
2024/01/06 00:46:37;;;;;;;43.43;18.07;;;3.10;99.90;;;;;;5058111;28;20814;-65
2024/01/06 00:49:04;;;;;;;30.33;14.20;;;3.00;99.90;;;;;;5058142;28;20467;-65
2024/01/06 00:51:32;;;;;;;35.83;17.90;;;3.00;99.90;;;;;;5058154;28;20444;-66
2024/01/06 00:53:59;;;;;;;33.63;17.60;;;3.00;99.90;;;;;;5057696;28;20532;-64
2024/01/06 00:56:27;;;;;;;36.70;16.90;;;3.00;99.90;;;;;;5057788;28;20550;-66
2024/01/06 00:58:54;;;;;;;28.10;15.87;;;2.90;99.90;;;;;;5057543;28;20497;-66
2024/01/06 01:01:21;;;;;;;38.00;19.63;;;2.90;99.90;;;;;;5057652;28;20540;-64
2024/01/06 01:03:48;;;;;;;31.83;16.30;;;2.90;99.90;;;;;;5057816;28;20476;-66
2024/01/06 01:06:14;;;;;;;28.63;16.73;;;2.90;99.90;;;;;;5058035;28;20527;-66
2024/01/06 01:08:43;;;;;;;34.67;16.93;;;2.90;99.90;;;;;;5057812;28;20470;-65
2024/01/06 01:11:10;;;;;;;40.57;19.03;;;2.90;99.90;;;;;;5058002;28;20504;-67
2024/01/06 01:13:36;;;;;;;35.70;16.50;;;2.90;99.90;;;;;;5057723;28;20852;-65
2024/01/06 01:16:03;;;;;;;33.03;15.97;;;2.90;99.90;;;;;;5057532;28;20491;-66
2024/01/06 01:18:30;;;;;;;32.17;15.70;;;2.90;99.90;;;;;;5057131;28;20488;-65
2024/01/06 01:20:57;;;;;;;47.23;18.20;;;2.90;99.90;;;;;;5057193;28;20534;-65
2024/01/06 01:23:24;;;;;;;35.93;15.77;;;2.90;99.90;;;;;;5057691;28;20820;-66
2024/01/06 01:25:52;;;;;;;33.87;14.87;;;2.90;99.90;;;;;;5057369;28;20456;-64
2024/01/06 01:28:19;;;;;;;31.20;16.67;;;2.90;99.90;;;;;;5057071;28;20449;-65
2024/01/06 01:30:46;;;;;;;23.37;15.07;;;2.90;99.90;;;;;;5057850;28;20475;-65
2024/01/06 01:33:13;;;;;;;37.47;17.27;;;3.00;99.90;;;;;;5057045;28;20547;-65
2024/01/06 01:35:40;;;;;;;37.60;17.40;;;2.90;99.90;;;;;;5057055;28;20476;-65
2024/01/06 01:38:08;;;;;;;31.30;14.57;;;2.90;99.90;;;;;;5057208;28;20532;-65
2024/01/06 01:40:35;;;;;;;28.17;14.33;;;2.90;99.90;;;;;;5057206;28;20511;-65
2024/01/06 01:43:03;;;;;;;28.03;13.37;;;2.90;99.90;;;;;;5057065;28;20502;-65
2024/01/06 01:45:30;;;;;;;26.10;14.43;;;3.00;99.90;;;;;;5057060;28;20519;-64
2024/01/06 01:47:57;;;;;;;29.53;16.60;;;2.90;99.90;;;;;;5056857;28;20496;-67
2024/01/06 01:50:27;;;;;;;33.40;15.00;;;2.90;99.90;;;;;;5056773;28;20852;-65
2024/01/06 01:52:55;;;;;;;39.87;15.40;;;3.00;99.90;;;;;;5056790;28;20468;-65
2024/01/06 01:55:22;;;;;;;29.63;14.67;;;3.00;99.90;;;;;;5056971;28;20842;-66
2024/01/06 01:57:49;;;;;;;24.37;14.00;;;3.00;99.90;;;;;;5057163;28;20539;-65
2024/01/06 02:00:17;;;;;;;35.00;15.57;;;3.00;99.90;;;;;;5056674;28;20555;-64
2024/01/06 02:02:44;;;;;;;33.53;14.00;;;3.00;99.90;;;;;;5056486;28;20520;-64
2024/01/06 02:05:11;;;;;;;21.60;13.83;;;2.90;99.90;;;;;;5056803;28;20481;-64
2024/01/06 02:07:38;;;;;;;32.53;16.20;;;2.90;99.90;;;;;;5056218;28;20551;-66
2024/01/06 02:10:06;;;;;;;27.17;15.97;;;3.00;99.90;;;;;;5056254;28;20468;-65
2024/01/06 02:12:33;;;;;;;26.63;13.83;;;3.00;99.90;;;;;;5056344;28;20485;-65
2024/01/06 02:15:00;;;;;;;38.83;16.87;;;3.00;99.90;;;;;;5056508;28;20554;-66
2024/01/06 02:17:28;;;;;;;27.63;14.53;;;3.00;99.90;;;;;;5056579;28;20496;-66
2024/01/06 02:19:56;;;;;;;32.17;15.03;;;2.90;99.90;;;;;;5056286;28;20559;-65
2024/01/06 02:22:24;;;;;;;25.23;15.00;;;3.00;99.90;;;;;;5056217;28;20474;-66
2024/01/06 02:24:51;;;;;;;27.40;14.37;;;2.90;99.90;;;;;;5056585;28;20859;-66
2024/01/06 02:27:18;;;;;;;25.33;13.87;;;2.90;99.90;;;;;;5056335;28;20467;-65
2024/01/06 02:29:45;;;;;;;30.87;15.70;;;2.90;99.90;;;;;;5056274;28;20516;-65
2024/01/06 02:32:11;;;;;;;28.67;17.20;;;2.90;99.90;;;;;;5056000;28;21016;-65
2024/01/06 02:34:39;;;;;;;28.63;15.83;;;2.90;99.90;;;;;;5055953;28;20532;-66
2024/01/06 02:37:06;;;;;;;39.87;17.23;;;2.90;99.90;;;;;;5056195;28;20439;-65
2024/01/06 02:39:34;;;;;;;24.53;14.67;;;2.90;99.90;;;;;;5056221;28;20516;-65
2024/01/06 02:42:01;;;;;;;30.00;17.17;;;2.90;99.90;;;;;;5055768;28;20540;-66
2024/01/06 02:44:27;;;;;;;26.97;14.73;;;3.00;99.90;;;;;;5055421;28;20481;-63
2024/01/06 02:46:55;;;;;;;36.00;15.20;;;3.00;99.90;;;;;;5055980;28;20531;-66
2024/01/06 02:49:22;;;;;;;24.83;12.80;;;2.90;99.90;;;;;;5056011;28;20468;-64
2024/01/06 02:51:48;;;;;;;27.73;15.63;;;2.90;99.90;;;;;;5056101;28;20517;-65
2024/01/06 02:54:15;;;;;;;33.93;14.33;;;2.90;99.90;;;;;;5055892;28;20472;-65
2024/01/06 02:56:43;;;;;;;25.47;14.67;;;2.90;99.90;;;;;;5055372;28;20811;-65
2024/01/06 02:59:10;;;;;;;31.77;15.07;;;2.90;99.90;;;;;;5055535;28;21030;-67
2024/01/06 03:01:37;;;;;;;30.60;14.37;;;2.90;99.90;;;;;;5055242;28;20563;-65
2024/01/06 03:04:04;;;;;;;38.67;15.40;;;2.90;99.90;;;;;;5055872;28;20480;-67
2024/01/06 03:06:31;;;;;;;28.07;14.93;;;2.90;99.90;;;;;;5055617;28;20496;-65
2024/01/06 03:08:58;;;;;;;29.43;14.50;;;2.90;99.90;;;;;;5055493;28;20443;-66
2024/01/06 03:11:25;;;;;;;27.37;15.83;;;2.90;99.90;;;;;;5055358;28;20538;-65
2024/01/06 03:13:53;;;;;;;29.30;16.27;;;2.90;99.90;;;;;;5055810;28;20432;-66
2024/01/06 03:16:20;;;;;;;26.23;15.50;;;2.90;99.90;;;;;;5056162;28;20452;-67
2024/01/06 03:18:47;;;;;;;31.47;15.13;;;2.90;99.90;;;;;;5055806;28;20488;-67
2024/01/06 03:21:20;;;;;;;30.60;15.47;;;2.90;99.90;;;;;;5055847;28;20780;-65
2024/01/06 03:23:50;;;;;;;27.57;13.30;;;3.00;99.90;;;;;;5054456;28;21066;-66
2024/01/06 03:26:18;;;;;;;31.27;15.60;;;3.00;99.90;;;;;;5054681;28;20542;-66
2024/01/06 03:28:45;;;;;;;28.90;14.10;;;2.90;99.90;;;;;;5054609;28;20510;-65
2024/01/06 03:31:13;;;;;;;31.07;14.23;;;2.90;99.90;;;;;;5054364;28;20514;-64
2024/01/06 03:33:40;;;;;;;39.53;14.20;;;2.90;99.90;;;;;;5054686;28;20793;-66
2024/01/06 03:36:07;;;;;;;28.17;15.10;;;2.90;99.90;;;;;;5054669;28;20933;-66
2024/01/06 03:38:34;;;;;;;30.20;14.60;;;2.90;99.90;;;;;;5054960;28;20449;-64
2024/01/06 03:41:01;;;;;;;25.60;13.13;;;2.90;99.90;;;;;;5054465;28;20510;-66
2024/01/06 03:43:28;;;;;;;30.77;14.83;;;2.90;99.90;;;;;;5054574;28;20772;-65
2024/01/06 03:45:56;;;;;;;28.93;14.60;;;2.90;99.90;;;;;;5054131;28;20457;-65
2024/01/06 03:48:25;;;;;;;29.30;14.40;;;2.90;99.90;;;;;;5054508;28;20439;-66
2024/01/06 03:50:52;;;;;;;26.77;13.40;;;2.90;99.90;;;;;;5054129;28;20472;-64
2024/01/06 03:53:19;;;;;;;25.40;13.60;;;2.90;99.90;;;;;;5054185;28;20459;-64
2024/01/06 03:55:45;;;;;;;31.40;14.40;;;2.90;99.90;;;;;;5054068;28;20892;-66
2024/01/06 03:58:12;;;;;;;38.70;14.57;;;2.90;99.90;;;;;;5054328;28;20468;-65
2024/01/06 04:00:39;;;;;;;27.03;14.47;;;2.90;99.90;;;;;;5053875;28;20518;-65
2024/01/06 04:03:06;;;;;;;32.77;13.03;;;2.90;99.90;;;;;;5054163;28;20496;-66
2024/01/06 04:05:34;;;;;;;31.47;15.03;;;2.90;99.90;;;;;;5054665;28;20522;-65
2024/01/06 04:08:01;;;;;;;20.43;11.47;;;2.90;99.90;;;;;;5055551;28;20566;-65
2024/01/06 04:10:28;;;;;;;26.80;13.33;;;2.80;99.90;;;;;;5058246;28;20507;-65
2024/01/06 04:12:55;;;;;;;27.40;14.70;;;2.80;99.90;;;;;;5058102;28;20478;-66
2024/01/06 04:15:22;;;;;;;32.50;12.90;;;2.80;99.90;;;;;;5058063;28;20927;-66
2024/01/06 04:17:50;;;;;;;27.83;14.40;;;2.80;99.90;;;;;;5058508;28;20440;-64
2024/01/06 04:20:17;;;;;;;34.97;16.50;;;2.80;99.90;;;;;;5057753;28;20576;-66
2024/01/06 04:22:45;;;;;;;24.97;13.30;;;2.80;99.90;;;;;;5057935;28;20432;-65
2024/01/06 04:25:12;;;;;;;28.30;15.50;;;2.80;99.90;;;;;;5057763;28;20463;-64
2024/01/06 04:27:39;;;;;;;34.50;14.43;;;2.80;99.90;;;;;;5057755;28;20517;-65
2024/01/06 04:30:07;;;;;;;36.03;16.07;;;2.80;99.90;;;;;;5057401;28;20451;-64
2024/01/06 04:32:34;;;;;;;27.10;13.13;;;2.80;99.90;;;;;;5057336;28;20999;-65
2024/01/06 04:35:00;;;;;;;27.57;14.90;;;2.80;99.90;;;;;;5057357;28;20569;-65
2024/01/06 04:37:27;;;;;;;35.73;17.03;;;2.80;99.90;;;;;;5057469;28;20559;-65
2024/01/06 04:39:55;;;;;;;31.73;14.20;;;2.80;99.90;;;;;;5057487;28;20863;-65
2024/01/06 04:42:22;;;;;;;30.77;17.33;;;2.80;99.90;;;;;;5057416;28;20556;-66
2024/01/06 04:44:50;;;;;;;32.23;15.00;;;2.80;99.90;;;;;;5057450;28;20463;-67
2024/01/06 04:47:17;;;;;;;31.20;15.40;;;2.70;99.90;;;;;;5057007;28;20508;-64
2024/01/06 04:49:44;;;;;;;34.03;15.80;;;2.70;99.90;;;;;;5057151;28;20490;-64
2024/01/06 04:52:11;;;;;;;37.63;16.50;;;2.70;99.90;;;;;;5057391;28;20821;-65
2024/01/06 04:54:38;;;;;;;37.77;16.37;;;2.80;99.90;;;;;;5056973;28;20508;-66
2024/01/06 04:57:06;;;;;;;43.80;16.47;;;2.80;99.90;;;;;;5057236;28;20455;-65
2024/01/06 04:59:33;;;;;;;34.43;16.57;;;2.80;99.90;;;;;;5056710;28;20963;-66
2024/01/06 05:02:00;;;;;;;34.80;16.67;;;2.80;99.90;;;;;;5056747;28;20486;-64
2024/01/06 05:04:30;;;;;;;42.83;18.13;;;2.80;99.90;;;;;;5056712;28;20468;-66
2024/01/06 05:06:57;;;;;;;36.50;17.10;;;2.80;99.90;;;;;;5056775;28;20446;-65
2024/01/06 05:09:24;;;;;;;29.70;14.93;;;2.80;99.90;;;;;;5057049;28;20524;-66
2024/01/06 05:11:51;;;;;;;37.80;16.17;;;2.80;99.90;;;;;;5056663;28;20449;-67
2024/01/06 05:14:19;;;;;;;33.13;17.13;;;2.80;99.90;;;;;;5056889;28;20485;-67
2024/01/06 05:16:46;;;;;;;35.23;17.60;;;2.80;99.90;;;;;;5056849;28;20468;-64
2024/01/06 05:19:19;;;;;;;32.57;15.13;;;2.80;99.90;;;;;;5055917;28;20479;-65
2024/01/06 05:21:46;;;;;;;29.23;15.47;;;2.80;99.90;;;;;;5056394;28;20998;-64
2024/01/06 05:24:13;;;;;;;35.53;13.70;;;2.80;99.90;;;;;;5056844;28;20847;-64
2024/01/06 05:26:39;;;;;;;38.60;15.60;;;2.80;99.90;;;;;;5056596;28;20830;-65
2024/01/06 05:29:06;;;;;;;49.00;19.67;;;2.80;99.90;;;;;;5056344;28;20438;-65
2024/01/06 05:31:35;;;;;;;35.23;16.10;;;2.80;99.90;;;;;;5056595;28;20543;-66
2024/01/06 05:34:01;;;;;;;36.77;15.47;;;2.80;99.90;;;;;;5056253;28;20533;-66
2024/01/06 05:36:28;;;;;;;38.40;16.97;;;2.80;99.90;;;;;;5056183;28;20526;-66
2024/01/06 05:38:55;;;;;;;42.90;17.00;;;2.80;99.90;;;;;;5056039;28;20512;-66
2024/01/06 05:41:22;;;;;;;34.43;14.50;;;2.80;99.90;;;;;;5056287;28;20613;-66
2024/01/06 05:43:49;;;;;;;40.43;17.13;;;2.80;99.90;;;;;;5055974;28;20476;-66
2024/01/06 05:46:22;;;;;;;40.70;17.87;;;2.70;99.90;;;;;;5056002;28;20472;-65
2024/01/06 05:48:50;;;;;;;46.50;18.17;;;2.70;99.90;;;;;;5056318;28;20460;-65
2024/01/06 05:51:17;;;;;;;46.70;17.60;;;2.70;99.90;;;;;;5055891;28;20524;-67
2024/01/06 05:53:44;;;;;;;33.30;14.70;;;2.80;99.90;;;;;;5055868;28;20479;-66
2024/01/06 05:56:11;;;;;;;34.57;16.47;;;2.70;99.90;;;;;;5055753;28;20557;-67
2024/01/06 05:58:38;;;;;;;39.23;16.00;;;2.70;99.90;;;;;;5055807;28;20442;-64
2024/01/06 06:01:05;;;;;;;37.93;16.90;;;2.70;99.90;;;;;;5055602;28;20823;-65
2024/01/06 06:03:31;;;;;;;34.00;18.20;;;2.70;99.90;;;;;;5055966;28;20831;-66
2024/01/06 06:06:00;;;;;;;31.77;17.17;;;2.70;99.90;;;;;;5055881;28;20456;-65
2024/01/06 06:08:27;;;;;;;54.97;19.20;;;2.70;99.90;;;;;;5055570;28;20483;-66
2024/01/06 06:11:01;;;;;;;39.27;16.90;;;2.70;99.90;;;;;;5055965;28;20940;-65
2024/01/06 06:13:28;;;;;;;36.17;15.40;;;2.70;99.90;;;;;;5055771;28;20483;-65
2024/01/06 06:15:56;;;;;;;42.00;18.87;;;2.60;99.90;;;;;;5055482;28;20457;-65
2024/01/06 06:18:22;;;;;;;49.00;21.13;;;2.60;99.90;;;;;;5055591;28;20764;-65
2024/01/06 06:20:49;;;;;;;39.67;17.30;;;2.60;99.90;;;;;;5055253;28;20540;-66
2024/01/06 06:23:17;;;;;;;31.77;17.67;;;2.70;99.90;;;;;;5055479;28;20532;-65
2024/01/06 06:25:44;;;;;;;33.43;16.50;;;2.70;99.90;;;;;;5055667;28;20475;-65
2024/01/06 06:28:11;;;;;;;32.67;17.67;;;2.70;99.90;;;;;;5055184;28;20448;-64
2024/01/06 06:30:39;;;;;;;37.60;16.30;;;2.70;99.90;;;;;;5054344;28;20473;-65
2024/01/06 06:33:06;;;;;;;38.83;15.93;;;2.70;99.90;;;;;;5055465;28;20455;-65
2024/01/06 06:35:33;;;;;;;37.10;16.33;;;2.70;99.90;;;;;;5055301;28;20468;-66
2024/01/06 06:38:00;;;;;;;41.00;16.57;;;2.60;99.90;;;;;;5055345;28;20449;-67
2024/01/06 06:40:28;;;;;;;33.27;17.10;;;2.60;99.90;;;;;;5055124;28;20888;-65
2024/01/06 06:42:55;;;;;;;31.00;15.80;;;2.70;99.90;;;;;;5055293;28;20900;-65
2024/01/06 06:45:23;;;;;;;36.97;16.97;;;2.60;99.90;;;;;;5055187;28;20533;-65
2024/01/06 06:47:50;;;;;;;39.77;17.70;;;2.60;99.90;;;;;;5054853;28;20471;-65
2024/01/06 06:50:17;;;;;;;37.17;15.90;;;2.60;99.90;;;;;;5054781;28;20441;-66
2024/01/06 06:52:45;;;;;;;34.73;15.13;;;2.60;99.90;;;;;;5055012;28;20467;-66
2024/01/06 06:55:12;;;;;;;34.00;14.27;;;2.70;99.90;;;;;;5055078;28;20527;-65
2024/01/06 06:57:40;;;;;;;37.83;15.00;;;2.60;99.90;;;;;;5055458;28;21023;-67
2024/01/06 07:00:08;;;;;;;43.57;15.90;;;2.60;99.90;;;;;;5054631;28;20480;-67
2024/01/06 07:02:35;;;;;;;34.00;15.33;;;2.60;99.90;;;;;;5054499;28;20922;-66
2024/01/06 07:05:02;;;;;;;40.40;17.27;;;2.60;99.90;;;;;;5054668;28;20908;-66
2024/01/06 07:07:29;;;;;;;28.30;15.23;;;2.60;99.90;;;;;;5055679;28;20443;-65
2024/01/06 07:09:56;;;;;;;42.10;16.70;;;2.50;99.90;;;;;;5054498;28;21052;-66
2024/01/06 07:12:23;;;;;;;35.53;15.90;;;2.50;99.90;;;;;;5054849;28;20531;-67
2024/01/06 07:14:51;;;;;;;33.07;16.13;;;2.60;99.90;;;;;;5054740;28;20464;-66
2024/01/06 07:17:18;;;;;;;33.23;15.53;;;2.50;99.90;;;;;;5054766;28;20551;-66
2024/01/06 07:19:45;;;;;;;31.43;15.27;;;2.50;99.90;;;;;;5054532;28;20503;-64
2024/01/06 07:22:12;;;;;;;33.43;15.80;;;2.50;99.90;;;;;;5054729;28;20457;-65
2024/01/06 07:24:38;;;;;;;30.60;17.90;;;2.50;99.90;;;;;;5054725;28;20464;-64
2024/01/06 07:27:05;;;;;;;41.93;14.00;;;2.50;99.90;;;;;;5054445;28;20533;-66
2024/01/06 07:29:32;;;;;;;39.97;15.03;;;2.40;99.90;;;;;;5054390;28;20964;-66
2024/01/06 07:32:00;;;;;;;37.77;14.20;;;2.40;99.90;;;;;;5054571;28;20503;-66
2024/01/06 07:34:27;;;;;;;49.27;18.07;;;2.30;99.90;;;;;;5054613;28;20523;-67
2024/01/06 07:36:54;;;;;;;31.03;16.07;;;2.30;99.90;;;;;;5054590;28;20476;-65
2024/01/06 07:39:21;;;;;;;40.83;14.50;;;2.20;99.90;;;;;;5054666;28;20441;-65
2024/01/06 07:41:48;;;;;;;35.90;14.97;;;2.20;99.90;;;;;;5055484;28;20571;-68
2024/01/06 07:44:15;;;;;;;36.47;16.37;;;2.20;99.90;;;;;;5058624;28;20481;-68
2024/01/06 07:46:42;;;;;;;30.87;16.60;;;2.20;99.90;;;;;;5058576;28;20450;-67
2024/01/06 07:49:11;;;;;;;38.30;15.63;;;2.20;99.90;;;;;;5058450;28;20541;-66
2024/01/06 07:51:38;;;;;;;38.40;18.47;;;2.20;99.90;;;;;;5058487;28;20514;-66
2024/01/06 07:54:06;;;;;;;47.57;19.53;;;2.20;99.90;;;;;;5058310;28;20481;-65
2024/01/06 07:56:33;;;;;;;29.93;15.10;;;2.20;99.90;;;;;;5058576;28;20447;-66
2024/01/06 07:59:00;;;;;;;40.30;17.30;;;2.20;99.90;;;;;;5058278;28;20601;-64
2024/01/06 08:01:26;;;;;;;47.00;17.43;;;2.20;99.90;;;;;;5058825;28;20480;-67
2024/01/06 08:03:53;;;;;;;32.77;15.80;;;2.20;99.90;;;;;;5059198;28;20990;-66
2024/01/06 08:06:22;;;;;;;34.70;15.97;;;2.10;99.90;;;;;;5057920;28;20534;-65
2024/01/06 08:08:49;;;;;;;35.17;13.57;;;2.10;99.90;;;;;;5058186;28;20541;-66
2024/01/06 08:11:15;;;;;;;39.93;17.73;;;2.10;99.90;;;;;;5057712;28;20467;-63
2024/01/06 08:13:42;;;;;;;45.47;16.47;;;2.20;99.90;;;;;;5058125;28;20540;-64
2024/01/06 08:16:09;;;;;;;42.60;18.50;;;2.20;99.90;;;;;;5057722;28;21001;-64
2024/01/06 08:18:36;;;;;;;37.20;16.73;;;2.10;99.90;;;;;;5057980;28;20458;-64
2024/01/06 08:21:06;;;;;;;40.33;15.30;;;2.10;99.90;;;;;;5057544;28;20486;-64
2024/01/06 08:23:34;;;;;;;41.17;17.63;;;2.10;99.90;;;;;;5057913;28;20539;-63
2024/01/06 08:26:01;;;;;;;37.70;16.67;;;2.10;99.90;;;;;;5058311;28;21002;-65
2024/01/06 08:28:28;;;;;;;51.87;18.63;;;2.10;99.90;;;;;;5057762;28;20463;-66
2024/01/06 08:30:55;;;;;;;35.70;20.07;;;2.10;99.90;;;;;;5057454;28;20535;-65
2024/01/06 08:33:22;;;;;;;39.23;17.30;;;2.10;99.90;;;;;;5057624;28;20476;-66
2024/01/06 08:35:49;;;;;;;29.70;14.83;;;2.10;99.90;;;;;;5057321;28;20450;-64
2024/01/06 08:38:16;;;;;;;37.27;17.27;;;2.00;99.90;;;;;;5057277;28;20482;-64
2024/01/06 08:40:47;;;;;;;33.50;15.07;;;2.00;99.90;;;;;;5057499;28;20522;-65
2024/01/06 08:43:15;;;;;;;33.30;16.50;;;2.10;99.90;;;;;;5057245;28;20438;-67
2024/01/06 08:45:42;;;;;;;47.30;16.40;;;2.10;99.90;;;;;;5057380;28;20482;-66
2024/01/06 08:48:08;;;;;;;37.17;18.00;;;2.10;99.90;;;;;;5057180;28;20471;-65
2024/01/06 08:50:35;;;;;;;44.20;17.57;;;2.10;99.90;;;;;;5057020;28;20476;-64
2024/01/06 08:53:02;;;;;;;41.57;16.23;;;2.10;99.90;;;;;;5056406;28;20479;-66
2024/01/06 08:55:29;;;;;;;44.07;18.13;;;2.10;99.90;;;;;;5056953;28;20486;-63
2024/01/06 08:57:57;;;;;;;34.97;17.00;;;2.00;99.90;;;;;;5057003;28;20954;-66
2024/01/06 09:00:24;;;;;;;34.30;14.07;;;2.00;99.90;;;;;;5057149;28;20525;-66
2024/01/06 09:02:51;;;;;;;32.07;15.17;;;2.10;99.90;;;;;;5056809;28;20510;-63
2024/01/06 09:05:18;;;;;;;33.47;17.57;;;2.00;99.90;;;;;;5056818;28;20514;-66
2024/01/06 09:07:49;;;;;;;34.03;15.53;;;2.00;99.90;;;;;;5056642;28;20552;-65
2024/01/06 09:10:15;;;;;;;36.53;15.53;;;2.10;99.90;;;;;;5057051;28;20433;-66
2024/01/06 09:12:42;;;;;;;29.93;15.60;;;2.00;99.90;;;;;;5056985;28;20557;-65
2024/01/06 09:15:11;;;;;;;38.57;16.13;;;2.10;99.90;;;;;;5057482;28;20455;-68
2024/01/06 09:17:38;;;;;;;40.43;19.00;;;2.10;99.90;;;;;;5056898;28;20905;-66
2024/01/06 09:20:06;;;;;;;44.17;17.70;;;2.10;99.90;;;;;;5056848;28;20495;-65
2024/01/06 09:22:33;;;;;;;32.33;16.27;;;2.10;99.90;;;;;;5056624;28;20492;-66
2024/01/06 09:25:00;;;;;;;44.70;15.70;;;2.10;99.90;;;;;;5056486;28;20539;-66
2024/01/06 09:27:27;;;;;;;37.90;16.73;;;2.10;99.90;;;;;;5056303;28;20533;-64
2024/01/06 09:29:53;;;;;;;37.97;16.83;;;2.10;99.90;;;;;;5056405;28;20518;-65
2024/01/06 09:32:22;;;;;;;47.13;18.23;;;2.00;99.90;;;;;;5056565;28;20519;-66
2024/01/06 09:34:49;;;;;;;31.87;16.10;;;2.00;99.90;;;;;;5056276;28;20432;-66
2024/01/06 09:37:16;;;;;;;38.53;17.30;;;2.10;99.90;;;;;;5056516;28;20531;-65
2024/01/06 09:39:43;;;;;;;45.57;18.87;;;2.10;99.90;;;;;;5056519;28;20540;-66
2024/01/06 09:42:11;;;;;;;36.60;16.60;;;2.10;99.90;;;;;;5056316;28;20805;-65
2024/01/06 09:44:38;;;;;;;44.50;15.10;;;2.10;99.90;;;;;;5056417;28;20454;-64
2024/01/06 09:47:06;;;;;;;37.67;17.70;;;2.00;99.90;;;;;;5056071;28;20487;-65
2024/01/06 09:49:39;;;;;;;39.30;16.87;;;2.00;99.90;;;;;;5055945;28;20551;-65
2024/01/06 09:52:15;;;;;;;35.00;15.90;;;2.00;99.90;;;;;;5056264;28;20474;-64
2024/01/06 09:54:47;;;;;;;37.03;16.90;;;2.40;99.90;;;;;;5055927;28;20779;-66
2024/01/06 09:57:14;;;;;;;32.83;16.23;;;3.10;99.90;;;;;;5056289;28;20430;-66
2024/01/06 09:59:43;;;;;;;40.17;17.17;;;2.80;99.90;;;;;;5056036;28;20601;-67
2024/01/06 10:02:13;;;;;;;44.70;19.03;;;2.70;99.90;;;;;;5055492;28;20489;-64
2024/01/06 10:04:42;;;;;;;30.53;16.30;;;2.50;99.90;;;;;;5055557;28;20502;-66
2024/01/06 10:07:12;;;;;;;29.97;15.30;;;2.40;99.90;;;;;;5055983;28;20447;-65
2024/01/06 10:09:39;;;;;;;30.20;16.63;;;2.30;99.90;;;;;;5055966;28;20483;-66
2024/01/06 10:12:07;;;;;;;35.23;17.80;;;2.20;99.90;;;;;;5055636;28;20440;-65
2024/01/06 10:14:34;;;;;;;35.07;15.90;;;2.20;99.90;;;;;;5055725;28;20546;-65
2024/01/06 10:17:01;;;;;;;24.47;13.50;;;2.10;99.90;;;;;;5055532;28;20946;-66
2024/01/06 10:19:28;;;;;;;38.13;18.90;;;2.20;99.90;;;;;;5055627;28;20495;-66
2024/01/06 10:22:00;;;;;;;37.67;16.97;;;2.20;99.90;;;;;;5055296;28;20567;-65
2024/01/06 10:24:27;;;;;;;37.97;18.60;;;2.20;99.90;;;;;;5055528;28;20798;-64
2024/01/06 10:26:54;;;;;;;38.87;17.90;;;2.20;99.90;;;;;;5055371;28;20524;-66
2024/01/06 10:29:21;;;;;;;28.53;14.33;;;2.20;99.90;;;;;;5055436;28;20550;-65
2024/01/06 10:31:49;;;;;;;41.60;17.30;;;2.20;99.90;;;;;;5055358;28;20515;-66
2024/01/06 10:34:15;;;;;;;30.63;14.67;;;2.20;99.90;;;;;;5055325;28;20921;-66
2024/01/06 10:36:43;;;;;;;28.50;15.00;;;2.20;99.90;;;;;;5055157;28;20465;-65
2024/01/06 10:39:12;;;;;;;31.33;16.63;;;2.20;99.90;;;;;;5055043;28;20472;-65
2024/01/06 10:41:42;;;;;;;31.77;17.87;;;2.10;99.90;;;;;;5055289;28;20485;-65
2024/01/06 10:44:10;;;;;;;36.90;18.47;;;2.10;99.90;;;;;;5055003;28;20445;-64
2024/01/06 10:46:38;;;;;;;31.80;16.90;;;2.10;99.90;;;;;;5054940;28;20527;-65
2024/01/06 10:49:08;;;;;;;42.03;18.27;;;2.20;99.90;;;;;;5055191;28;20444;-63
2024/01/06 10:51:35;;;;;;;41.03;16.80;;;2.20;99.90;;;;;;5055168;28;20538;-65
2024/01/06 10:54:02;;;;;;;23.47;13.50;;;2.20;99.90;;;;;;5054674;28;20472;-65
2024/01/06 10:56:31;;;;;;;38.00;16.60;;;2.20;99.90;;;;;;5054621;28;20968;-65
2024/01/06 10:58:58;;;;;;;31.20;14.77;;;2.10;99.90;;;;;;5054930;28;20538;-65
2024/01/06 11:01:25;;;;;;;37.23;20.80;;;2.10;99.90;;;;;;5054540;28;20526;-66
2024/01/06 11:03:54;;;;;;;43.57;16.27;;;2.10;99.90;;;;;;5055026;28;20465;-67
2024/01/06 11:06:22;;;;;;;44.53;15.90;;;2.10;99.90;;;;;;5054444;28;20465;-67
2024/01/06 11:08:53;;;;;;;32.13;14.80;;;2.10;99.90;;;;;;5054902;28;20530;-65
2024/01/06 11:11:22;;;;;;;34.53;16.50;;;2.10;99.90;;;;;;5056909;28;20974;-66
2024/01/06 11:13:50;;;;;;;26.93;12.97;;;2.20;99.90;;;;;;5059088;28;20534;-66
2024/01/06 11:16:37;;;;;;;31.70;15.63;;;2.30;99.90;;;;;;5055426;28;20510;-66
2024/01/06 11:19:24;;;;;;;39.40;19.57;;;2.20;99.90;;;;;;5054578;28;20495;-66
2024/01/06 11:21:51;;;;;;;30.47;16.10;;;2.20;99.90;;;;;;5054276;28;20575;-65
2024/01/06 11:24:24;;;;;;;29.40;15.80;;;2.20;99.90;;;;;;5055390;28;20448;-64
2024/01/06 11:26:53;;;;;;;29.30;15.87;;;2.20;99.90;;;;;;5073743;28;20468;-64
2024/01/06 11:29:21;;;;;;;26.00;14.73;;;2.20;99.90;;;;;;5076373;28;20446;-65
2024/01/06 11:32:19;;;;;;;29.30;17.33;;;2.20;99.90;;;;;;5075538;28;20465;-65
2024/01/06 11:34:49;;;;;;;26.40;12.90;;;2.10;99.90;;;;;;5070910;28;20428;-66
2024/01/06 11:37:19;;;;;;;32.97;14.67;;;2.10;99.90;;;;;;5075683;28;20470;-66
2024/01/06 11:39:49;;;;;;;37.40;19.23;;;2.20;99.90;;;;;;5075785;28;20474;-66
2024/01/06 11:42:15;;;;;;;30.80;15.93;;;2.20;99.90;;;;;;5075801;28;20503;-66
2024/01/06 11:44:50;;;;;;;30.60;15.83;;;2.20;99.90;;;;;;5075643;28;20448;-66
2024/01/06 11:47:23;;;;;;;28.50;15.33;;;2.20;99.90;;;;;;5075278;28;20852;-64
2024/01/06 11:49:56;;;;;;;31.67;15.47;;;2.20;99.90;;;;;;5076081;28;20496;-68
2024/01/06 11:52:25;;;;;;;18.30;11.20;;;2.20;99.90;;;;;;5076968;28;20456;-71
2024/01/06 11:54:53;;;;;;;25.73;14.47;;;2.20;99.90;;;;;;5075115;28;20442;-67
2024/01/06 11:57:19;;;;;;;33.80;15.33;;;2.10;99.90;;;;;;5076646;28;20455;-68
2024/01/06 11:59:49;;;;;;;35.80;15.97;;;2.10;99.90;;;;;;5076375;28;20425;-65
2024/01/06 12:02:18;;;;;;;41.37;18.50;;;2.10;99.90;;;;;;5075103;28;20566;-64
2024/01/06 12:04:49;;;;;;;38.20;15.63;;;2.00;99.90;;;;;;5075987;28;20415;-63
2024/01/06 12:07:17;;;;;;;33.90;15.47;;;2.00;99.90;;;;;;5075752;28;20497;-63
2024/01/06 12:09:44;;;;;;;30.90;15.67;;;2.00;99.90;;;;;;5075708;28;20432;-66
2024/01/06 12:12:13;;;;;;;42.40;17.27;;;2.00;99.90;;;;;;5075042;28;20503;-65
2024/01/06 12:14:42;;;;;;;36.17;16.33;;;1.90;99.90;;;;;;5074967;28;20481;-65
2024/01/06 12:17:14;;;;;;;28.50;12.00;;;2.00;99.90;;;;;;5075995;28;20491;-69
2024/01/06 12:19:42;;;;;;;30.30;15.00;;;2.00;99.90;;;;;;5075898;28;20448;-65
2024/01/06 12:22:12;;;;;;;33.40;16.50;;;1.90;99.90;;;;;;5075135;28;20488;-63
2024/01/06 12:24:39;;;;;;;29.50;14.73;;;2.00;99.90;;;;;;5075753;28;20460;-66
2024/01/06 12:27:10;;;;;;;20.30;11.20;;;2.00;99.90;;;;;;5074733;28;20440;-64
2024/01/06 12:29:39;;;;;;;33.13;15.63;;;2.00;99.90;;;;;;5078272;28;20529;-66
2024/01/06 12:32:07;;;;;;;39.87;17.97;;;2.00;99.90;;;;;;5079306;28;20417;-64
2024/01/06 12:34:44;;;;;;;32.53;18.17;;;2.00;99.90;;;;;;5079014;28;20502;-68
2024/01/06 12:37:10;;;;;;;33.50;14.87;;;2.00;99.90;;;;;;5076841;28;20430;-69